Time;durP1;ratioP1;P1;durP2;ratioP2;P2;SDS_P1;SDS_P2;PMS_P1;PMS_P2;Temp;Humidity;BMP_temperature;BMP_pressure;BME280_temperature;BME280_humidity;BME280_pressure;Samples;Min_cycle;Max_cycle;Signal;HPM_P1;HPM_P2
2024/04/14 00:00:59;;;;;;;3.97;2.78;;;;;;;;;;5236858;27;20375;-85
2024/04/14 00:03:24;;;;;;;8.07;2.92;;;;;;;;;;5232413;27;20289;-85
2024/04/14 00:05:50;;;;;;;3.40;2.55;;;;;;;;;;5175820;27;20263;-85
2024/04/14 00:08:16;;;;;;;5.88;2.72;;;;;;;;;;5181308;27;20627;-84
2024/04/14 00:10:46;;;;;;;5.53;2.60;;;;;;;;;;5189320;27;20636;-85
2024/04/14 00:13:17;;;;;;;4.57;2.55;;;;;;;;;;5230395;27;20274;-86
2024/04/14 00:15:42;;;;;;;4.65;2.58;;;;;;;;;;5189470;27;20286;-86
2024/04/14 00:18:11;;;;;;;5.45;2.53;;;;;;;;;;5236162;27;20262;-86
2024/04/14 00:20:38;;;;;;;6.82;2.33;;;;;;;;;;5165032;27;20319;-84
2024/04/14 00:23:04;;;;;;;4.22;2.47;;;;;;;;;;5248825;27;20261;-84
2024/04/14 00:25:33;;;;;;;5.18;2.60;;;;;;;;;;5203098;27;20284;-84
2024/04/14 00:27:58;;;;;;;4.45;2.50;;;;;;;;;;5216288;27;20263;-86
2024/04/14 00:30:26;;;;;;;4.68;2.25;;;;;;;;;;5212398;27;20320;-83
2024/04/14 00:32:59;;;;;;;3.72;2.28;;;;;;;;;;5220396;27;20307;-87
2024/04/14 00:35:28;;;;;;;4.63;2.35;;;;;;;;;;5187061;27;20259;-86
2024/04/14 00:37:56;;;;;;;5.07;2.38;;;;;;;;;;5213972;27;20310;-86
2024/04/14 00:40:23;;;;;;;2.92;2.17;;;;;;;;;;5219527;27;20291;-85
2024/04/14 00:42:56;;;;;;;5.47;2.10;;;;;;;;;;5205297;27;20704;-87
2024/04/14 00:45:29;;;;;;;3.17;1.85;;;;;;;;;;5195319;27;20342;-85
2024/04/14 00:47:55;;;;;;;4.53;2.05;;;;;;;;;;5202126;27;20276;-85
2024/04/14 00:50:23;;;;;;;5.15;2.13;;;;;;;;;;5253883;27;20375;-85
2024/04/14 00:52:49;;;;;;;5.65;2.22;;;;;;;;;;5199161;27;20800;-87
2024/04/14 00:55:19;;;;;;;4.05;1.95;;;;;;;;;;5203626;27;20263;-86
2024/04/14 00:57:47;;;;;;;5.13;1.90;;;;;;;;;;5204014;27;20319;-85
2024/04/14 01:00:13;;;;;;;5.15;1.90;;;;;;;;;;5217161;27;20265;-86
2024/04/14 01:02:39;;;;;;;3.45;1.95;;;;;;;;;;5190267;27;20302;-86
2024/04/14 01:05:05;;;;;;;7.13;2.30;;;;;;;;;;5213989;27;20263;-85
2024/04/14 01:07:40;;;;;;;6.38;1.90;;;;;;;;;;5162002;27;20259;-86
2024/04/14 01:10:06;;;;;;;4.20;2.03;;;;;;;;;;5170046;27;20356;-86
2024/04/14 01:12:34;;;;;;;5.57;1.98;;;;;;;;;;5170403;27;20295;-85
2024/04/14 01:15:03;;;;;;;5.38;2.10;;;;;;;;;;5240579;27;20251;-87
2024/04/14 01:17:29;;;;;;;4.50;1.60;;;;;;;;;;5216841;27;20255;-87
2024/04/14 01:19:54;;;;;;;5.15;2.00;;;;;;;;;;5209445;27;20263;-86
2024/04/14 01:22:25;;;;;;;3.15;1.95;;;;;;;;;;5231727;27;20267;-85
2024/04/14 01:24:53;;;;;;;5.65;2.10;;;;;;;;;;5264862;27;20259;-85
2024/04/14 01:27:21;;;;;;;5.00;2.20;;;;;;;;;;5257082;27;20320;-86
2024/04/14 01:29:46;;;;;;;4.78;2.20;;;;;;;;;;5183361;27;20290;-84
2024/04/14 01:32:12;;;;;;;4.57;2.15;;;;;;;;;;5196227;27;20260;-84
2024/04/14 01:34:37;;;;;;;5.47;2.17;;;;;;;;;;5239117;26;20282;-87
2024/04/14 01:37:03;;;;;;;4.90;2.00;;;;;;;;;;5230119;27;20269;-85
2024/04/14 01:39:31;;;;;;;5.13;2.13;;;;;;;;;;5235855;27;20280;-83
2024/04/14 01:41:57;;;;;;;4.38;2.13;;;;;;;;;;5219758;27;20297;-85
2024/04/14 01:44:25;;;;;;;8.27;2.45;;;;;;;;;;5255430;27;20275;-85
2024/04/14 01:46:50;;;;;;;3.45;2.05;;;;;;;;;;5240677;27;20267;-85
2024/04/14 01:49:16;;;;;;;6.05;2.13;;;;;;;;;;5238992;27;20262;-83
2024/04/14 01:51:42;;;;;;;3.78;2.08;;;;;;;;;;5239096;27;20259;-86
2024/04/14 01:54:07;;;;;;;4.85;2.33;;;;;;;;;;5199211;27;20264;-84
2024/04/14 01:56:33;;;;;;;3.47;1.95;;;;;;;;;;5259830;27;20272;-85
2024/04/14 01:59:04;;;;;;;6.25;2.50;;;;;;;;;;5225489;27;20273;-85
2024/04/14 02:01:32;;;;;;;5.88;2.50;;;;;;;;;;5190316;27;20297;-86
2024/04/14 02:03:57;;;;;;;6.18;2.55;;;;;;;;;;5214588;27;20640;-84
2024/04/14 02:06:25;;;;;;;5.18;2.28;;;;;;;;;;5211951;27;20308;-85
2024/04/14 02:08:53;;;;;;;4.55;2.30;;;;;;;;;;5216771;27;20374;-85
2024/04/14 02:11:19;;;;;;;4.72;2.15;;;;;;;;;;5212581;27;20259;-84
2024/04/14 02:13:44;;;;;;;4.28;2.30;;;;;;;;;;5238094;27;20404;-85
2024/04/14 02:16:10;;;;;;;5.55;2.00;;;;;;;;;;5188296;27;20289;-84
2024/04/14 02:18:38;;;;;;;6.40;2.30;;;;;;;;;;5214002;27;20285;-85
2024/04/14 02:21:06;;;;;;;4.85;2.10;;;;;;;;;;5215862;27;20263;-84
2024/04/14 02:23:37;;;;;;;5.05;2.10;;;;;;;;;;5240611;27;20318;-85
2024/04/14 02:26:02;;;;;;;4.05;2.20;;;;;;;;;;5208595;27;20263;-84
2024/04/14 02:28:30;;;;;;;4.40;2.00;;;;;;;;;;5240328;27;20266;-83
2024/04/14 02:30:58;;;;;;;5.05;2.72;;;;;;;;;;5209741;27;20846;-86
2024/04/14 02:33:26;;;;;;;4.00;1.88;;;;;;;;;;5217184;27;20254;-85
2024/04/14 02:36:01;;;;;;;4.90;1.90;;;;;;;;;;5242779;27;20263;-84
2024/04/14 02:38:30;;;;;;;4.88;2.17;;;;;;;;;;5210285;27;20262;-84
2024/04/14 02:41:13;;;;;;;4.88;2.10;;;;;;;;;;5203883;27;20606;-85
2024/04/14 02:43:40;;;;;;;4.32;1.90;;;;;;;;;;5239825;27;21095;-85
2024/04/14 02:46:05;;;;;;;6.30;2.25;;;;;;;;;;5222680;27;20262;-83
2024/04/14 02:48:31;;;;;;;4.82;1.80;;;;;;;;;;5210822;27;20349;-85
2024/04/14 02:50:58;;;;;;;6.10;2.20;;;;;;;;;;5197708;27;20286;-85
2024/04/14 02:53:28;;;;;;;4.70;2.13;;;;;;;;;;5199276;27;20259;-84
2024/04/14 02:55:53;;;;;;;4.45;2.08;;;;;;;;;;5202556;27;20376;-82
2024/04/14 02:58:19;;;;;;;4.40;2.00;;;;;;;;;;5200539;27;20753;-84
2024/04/14 03:00:44;;;;;;;4.95;2.03;;;;;;;;;;5204497;27;20262;-85
2024/04/14 03:03:10;;;;;;;4.75;2.28;;;;;;;;;;5204808;27;20330;-87
2024/04/14 03:05:41;;;;;;;7.05;2.00;;;;;;;;;;5209080;27;20899;-85
2024/04/14 03:08:06;;;;;;;5.50;2.28;;;;;;;;;;5201165;27;20328;-85
2024/04/14 03:10:32;;;;;;;7.82;2.33;;;;;;;;;;5204630;27;20258;-84
2024/04/14 03:13:00;;;;;;;4.57;2.17;;;;;;;;;;5216316;27;21091;-85
2024/04/14 03:15:26;;;;;;;6.35;2.30;;;;;;;;;;5207969;27;20672;-86
2024/04/14 03:17:51;;;;;;;4.75;2.45;;;;;;;;;;5230432;27;20259;-86
2024/04/14 03:20:17;;;;;;;6.38;2.20;;;;;;;;;;5196279;27;20275;-85
2024/04/14 03:22:45;;;;;;;4.20;2.00;;;;;;;;;;5218426;27;20278;-86
2024/04/14 03:25:11;;;;;;;4.70;2.20;;;;;;;;;;5197926;27;20990;-86
2024/04/14 03:27:39;;;;;;;5.68;2.05;;;;;;;;;;5182466;27;20347;-83
2024/04/14 03:30:05;;;;;;;4.68;1.90;;;;;;;;;;5232577;27;20270;-86
2024/04/14 03:32:31;;;;;;;4.97;1.73;;;;;;;;;;5212327;27;20376;-84
2024/04/14 03:34:57;;;;;;;2.90;1.10;;;;;;;;;;5190003;27;20346;-84
2024/04/14 03:37:22;;;;;;;5.25;1.30;;;;;;;;;;5174989;27;20414;-85
2024/04/14 03:39:48;;;;;;;4.10;1.25;;;;;;;;;;5241196;27;20269;-84
2024/04/14 03:42:13;;;;;;;4.00;1.33;;;;;;;;;;5198626;27;20298;-84
2024/04/14 03:44:42;;;;;;;3.60;1.30;;;;;;;;;;5217362;27;20287;-86
2024/04/14 03:47:07;;;;;;;3.95;1.20;;;;;;;;;;5202433;27;20375;-84
2024/04/14 03:49:40;;;;;;;2.67;1.00;;;;;;;;;;5210367;27;20326;-85
2024/04/14 03:52:06;;;;;;;3.10;1.00;;;;;;;;;;5240960;27;20262;-86
2024/04/14 03:54:39;;;;;;;3.60;1.17;;;;;;;;;;5211090;27;20261;-84
2024/04/14 03:57:04;;;;;;;2.93;1.20;;;;;;;;;;5228965;27;20314;-84
2024/04/14 04:03:18;;;;;;;2.15;0.98;;;;;;;;;;5225222;27;20326;-83
2024/04/14 04:05:54;;;;;;;3.20;0.97;;;;;;;;;;5219785;27;20304;-85
2024/04/14 04:08:21;;;;;;;5.97;1.13;;;;;;;;;;5212323;27;20929;-84
2024/04/14 04:10:59;;;;;;;3.47;1.00;;;;;;;;;;5223403;27;20283;-84
2024/04/14 04:13:25;;;;;;;3.03;1.00;;;;;;;;;;5222212;27;20288;-84
2024/04/14 04:16:01;;;;;;;3.23;1.07;;;;;;;;;;5206200;27;20267;-83
2024/04/14 04:18:27;;;;;;;2.80;1.07;;;;;;;;;;5239641;27;20257;-84
2024/04/14 04:21:02;;;;;;;4.70;1.60;;;;;;;;;;5243193;27;20294;-85
2024/04/14 04:23:27;;;;;;;3.93;1.10;;;;;;;;;;5201501;27;20265;-83
2024/04/14 04:25:57;;;;;;;4.88;1.52;;;;;;;;;;5204603;27;20263;-85
2024/04/14 04:28:22;;;;;;;4.65;1.30;;;;;;;;;;5204472;27;20734;-83
2024/04/14 04:30:51;;;;;;;5.45;1.60;;;;;;;;;;5240514;27;20266;-85
2024/04/14 04:33:17;;;;;;;5.17;1.30;;;;;;;;;;5178351;27;20265;-83
2024/04/14 04:35:56;;;;;;;5.17;1.30;;;;;;;;;;5158810;27;20262;-85
2024/04/14 04:38:22;;;;;;;4.07;1.60;;;;;;;;;;5223886;27;20294;-84
2024/04/14 04:40:48;;;;;;;4.27;1.30;;;;;;;;;;5210610;27;20258;-85
2024/04/14 04:43:16;;;;;;;5.97;1.37;;;;;;;;;;5177482;27;20381;-84
2024/04/14 04:45:44;;;;;;;4.05;1.20;;;;;;;;;;5204950;27;20259;-86
2024/04/14 04:48:09;;;;;;;4.30;1.27;;;;;;;;;;5217140;27;20252;-84
2024/04/14 04:50:35;;;;;;;4.30;1.30;;;;;;;;;;5196846;27;20257;-86
2024/04/14 04:53:02;;;;;;;5.87;1.40;;;;;;;;;;5211450;27;20732;-87
2024/04/14 04:55:27;;;;;;;4.50;1.43;;;;;;;;;;5185874;27;20252;-84
2024/04/14 04:57:53;;;;;;;4.43;1.40;;;;;;;;;;5235202;27;20332;-84
2024/04/14 05:00:18;;;;;;;6.23;1.70;;;;;;;;;;5231257;27;20299;-84
2024/04/14 05:02:46;;;;;;;5.93;1.43;;;;;;;;;;5213738;27;20297;-84
2024/04/14 05:05:19;;;;;;;5.23;1.40;;;;;;;;;;5233049;27;20951;-85
2024/04/14 05:07:45;;;;;;;4.83;1.63;;;;;;;;;;5186081;27;20264;-84
2024/04/14 05:10:13;;;;;;;5.05;1.50;;;;;;;;;;5181756;27;20267;-84
2024/04/14 05:12:42;;;;;;;5.87;1.47;;;;;;;;;;5208508;27;20293;-85
2024/04/14 05:15:07;;;;;;;5.97;1.20;;;;;;;;;;5237988;27;20314;-84
2024/04/14 05:17:33;;;;;;;5.67;1.57;;;;;;;;;;5238865;27;20263;-86
2024/04/14 05:20:01;;;;;;;3.97;1.23;;;;;;;;;;5208634;27;20262;-85
2024/04/14 05:22:31;;;;;;;4.53;1.50;;;;;;;;;;5213947;27;20347;-84
2024/04/14 05:24:59;;;;;;;4.27;1.70;;;;;;;;;;5216799;27;20411;-86
2024/04/14 05:27:24;;;;;;;5.60;1.70;;;;;;;;;;5203078;27;20258;-85
2024/04/14 05:29:52;;;;;;;7.22;2.00;;;;;;;;;;5217662;27;20333;-85
2024/04/14 05:32:20;;;;;;;6.03;1.67;;;;;;;;;;5219849;27;20266;-86
2024/04/14 05:34:45;;;;;;;6.38;1.50;;;;;;;;;;5218355;27;20974;-85
2024/04/14 05:37:15;;;;;;;4.45;1.40;;;;;;;;;;5236979;27;20262;-85
2024/04/14 05:39:44;;;;;;;5.43;1.40;;;;;;;;;;5204188;27;20289;-85
2024/04/14 05:42:15;;;;;;;6.70;1.37;;;;;;;;;;5184083;27;20309;-84
2024/04/14 05:44:45;;;;;;;5.63;1.50;;;;;;;;;;5250505;27;20258;-86
2024/04/14 05:47:14;;;;;;;3.83;1.50;;;;;;;;;;5246885;27;20266;-86
2024/04/14 05:49:42;;;;;;;6.27;1.70;;;;;;;;;;5220695;27;20787;-84
2024/04/14 05:52:08;;;;;;;5.03;1.47;;;;;;;;;;5209943;27;20326;-85
2024/04/14 05:54:36;;;;;;;7.87;2.00;;;;;;;;;;5214378;27;20725;-85
2024/04/14 05:57:04;;;;;;;6.57;1.40;;;;;;;;;;5206445;27;20297;-85
2024/04/14 05:59:30;;;;;;;7.53;2.17;;;;;;;;;;5214686;27;20270;-85
2024/04/14 06:01:56;;;;;;;5.35;1.48;;;;;;;;;;5210930;27;20284;-85
2024/04/14 06:04:24;;;;;;;6.63;1.70;;;;;;;;;;5247936;27;20262;-86
2024/04/14 06:06:50;;;;;;;6.60;1.53;;;;;;;;;;5223644;27;20262;-86
2024/04/14 06:09:21;;;;;;;5.00;1.50;;;;;;;;;;5208742;27;20365;-85
2024/04/14 06:11:50;;;;;;;3.93;1.20;;;;;;;;;;5214010;27;20289;-86
2024/04/14 06:14:15;;;;;;;4.47;1.27;;;;;;;;;;5225554;27;20281;-86
2024/04/14 06:16:41;;;;;;;4.87;1.40;;;;;;;;;;5220574;27;20325;-86
2024/04/14 06:19:06;;;;;;;7.23;1.77;;;;;;;;;;5215006;27;20263;-85
2024/04/14 06:21:34;;;;;;;6.53;1.70;;;;;;;;;;5244864;27;20261;-83
2024/04/14 06:24:00;;;;;;;6.27;1.63;;;;;;;;;;5209497;27;20309;-85
2024/04/14 06:26:27;;;;;;;8.27;1.90;;;;;;;;;;5254201;27;20261;-85
2024/04/14 06:28:53;;;;;;;8.03;1.83;;;;;;;;;;5213045;27;20292;-84
2024/04/14 06:31:18;;;;;;;7.47;1.60;;;;;;;;;;5216803;27;20393;-84
2024/04/14 06:33:46;;;;;;;5.77;1.47;;;;;;;;;;5228719;27;20266;-85
2024/04/14 06:36:17;;;;;;;6.27;1.73;;;;;;;;;;5210376;27;20332;-84
2024/04/14 06:38:57;;;;;;;5.77;1.80;;;;;;;;;;5452450;25;20335;-75
2024/04/14 06:41:25;;;;;;;5.23;1.60;;;;;;;;;;5313485;26;20258;-74
2024/04/14 06:43:51;;;;;;;7.23;2.03;;;;;;;;;;5345188;26;20735;-75
2024/04/14 06:46:19;;;;;;;5.13;1.50;;;;;;;;;;5333706;26;20280;-74
2024/04/14 06:48:46;;;;;;;7.03;1.50;;;;;;;;;;5354309;26;20249;-74
2024/04/14 06:51:12;;;;;;;8.90;1.73;;;;;;;;;;5355126;26;20285;-76
2024/04/14 06:53:42;;;;;;;7.97;1.60;;;;;;;;;;5390215;26;20290;-75
2024/04/14 06:56:08;;;;;;;7.13;1.50;;;;;;;;;;5388768;26;20264;-74
2024/04/14 06:58:36;;;;;;;6.40;1.60;;;;;;;;;;5380236;26;21557;-75
2024/04/14 07:01:03;;;;;;;7.87;1.90;;;;;;;;;;5376751;26;20558;-74
2024/04/14 07:03:31;;;;;;;7.90;1.47;;;;;;;;;;5363082;26;20292;-76
2024/04/14 07:05:57;;;;;;;6.27;1.73;;;;;;;;;;5360496;26;20254;-76
2024/04/14 07:08:22;;;;;;;6.60;1.80;;;;;;;;;;5340511;26;20291;-75
2024/04/14 07:10:48;;;;;;;10.17;1.80;;;;;;;;;;5386114;26;20249;-76
2024/04/14 07:13:13;;;;;;;7.47;1.70;;;;;;;;;;5371161;26;20269;-76
2024/04/14 07:15:44;;;;;;;5.30;1.57;;;;;;;;;;5389236;26;20291;-75
2024/04/14 07:18:10;;;;;;;5.23;1.60;;;;;;;;;;5350607;26;20261;-77
2024/04/14 07:20:38;;;;;;;6.67;1.53;;;;;;;;;;5332586;26;20304;-77
2024/04/14 07:23:06;;;;;;;5.10;1.40;;;;;;;;;;5383216;26;20367;-77
2024/04/14 07:25:32;;;;;;;5.97;1.80;;;;;;;;;;5363111;26;20730;-76
2024/04/14 07:27:58;;;;;;;6.23;1.30;;;;;;;;;;5350306;26;20303;-76
2024/04/14 07:30:25;;;;;;;5.03;1.80;;;;;;;;;;5384388;26;20290;-75
2024/04/14 07:32:58;;;;;;;5.40;1.53;;;;;;;;;;5393122;26;20369;-75
2024/04/14 07:35:24;;;;;;;4.53;1.40;;;;;;;;;;5386649;26;20253;-75
2024/04/14 07:37:49;;;;;;;7.13;1.70;;;;;;;;;;5335158;26;20292;-75
2024/04/14 07:40:15;;;;;;;7.73;2.00;;;;;;;;;;5384229;26;20258;-76
2024/04/14 07:42:43;;;;;;;5.53;1.30;;;;;;;;;;5360035;26;20250;-76
2024/04/14 07:45:13;;;;;;;10.73;1.73;;;;;;;;;;5380905;26;20258;-74
2024/04/14 07:47:39;;;;;;;6.27;1.60;;;;;;;;;;5401884;26;20265;-76
2024/04/14 07:50:06;;;;;;;6.47;1.40;;;;;;;;;;5361738;26;20738;-76
2024/04/14 07:52:32;;;;;;;5.53;1.50;;;;;;;;;;5342690;26;20266;-75
2024/04/14 07:55:00;;;;;;;4.93;1.40;;;;;;;;;;5356043;26;20262;-74
2024/04/14 07:57:29;;;;;;;4.90;1.30;;;;;;;;;;5390556;26;20261;-75
2024/04/14 07:59:55;;;;;;;4.10;1.43;;;;;;;;;;5334967;26;20782;-77
2024/04/14 08:02:25;;;;;;;5.50;1.30;;;;;;;;;;5368640;26;21462;-75
2024/04/14 08:04:51;;;;;;;5.57;1.40;;;;;;;;;;5383101;26;20298;-75
2024/04/14 08:07:16;;;;;;;7.43;1.63;;;;;;;;;;5375120;26;20267;-76
2024/04/14 08:09:42;;;;;;;5.13;1.33;;;;;;;;;;5335712;26;20273;-76
2024/04/14 08:12:07;;;;;;;4.20;1.10;;;;;;;;;;5366017;26;20556;-76
2024/04/14 08:14:35;;;;;;;4.35;1.42;;;;;;;;;;5338273;26;20363;-76
2024/04/14 08:17:03;;;;;;;6.00;1.27;;;;;;;;;;5344500;26;20364;-75
2024/04/14 08:19:29;;;;;;;4.50;1.00;;;;;;;;;;5361181;26;20271;-74
2024/04/14 08:21:54;;;;;;;3.45;1.00;;;;;;;;;;5318417;26;20261;-75
2024/04/14 08:24:20;;;;;;;4.60;1.10;;;;;;;;;;5356695;26;20254;-75
2024/04/14 08:26:48;;;;;;;4.03;1.10;;;;;;;;;;5312610;26;20312;-75
2024/04/14 08:29:16;;;;;;;3.70;1.20;;;;;;;;;;5348203;26;20258;-76
2024/04/14 08:31:42;;;;;;;2.55;1.10;;;;;;;;;;5360470;26;20262;-75
2024/04/14 08:34:10;;;;;;;2.90;0.90;;;;;;;;;;5360924;26;20250;-76
2024/04/14 08:36:36;;;;;;;5.55;1.30;;;;;;;;;;5364358;26;20279;-75
2024/04/14 08:39:03;;;;;;;2.72;1.02;;;;;;;;;;5345104;26;20687;-75
2024/04/14 08:41:33;;;;;;;3.33;0.93;;;;;;;;;;5342291;26;20259;-76
2024/04/14 08:44:01;;;;;;;3.20;1.08;;;;;;;;;;5371208;26;20301;-76
2024/04/14 08:46:28;;;;;;;4.07;1.00;;;;;;;;;;5365988;26;20298;-76
2024/04/14 08:48:54;;;;;;;5.07;1.00;;;;;;;;;;5351603;26;20308;-76
2024/04/14 08:51:23;;;;;;;4.80;1.20;;;;;;;;;;5337718;26;20292;-75
2024/04/14 08:53:49;;;;;;;5.83;1.23;;;;;;;;;;5313802;26;20250;-74
2024/04/14 08:56:15;;;;;;;5.63;1.27;;;;;;;;;;5338270;26;20251;-76
2024/04/14 08:58:42;;;;;;;5.38;1.25;;;;;;;;;;5370021;26;20301;-78
2024/04/14 09:01:12;;;;;;;3.03;1.08;;;;;;;;;;5348751;26;20263;-77
2024/04/14 09:03:39;;;;;;;2.60;1.05;;;;;;;;;;5336579;26;20616;-75
2024/04/14 09:06:07;;;;;;;3.17;1.10;;;;;;;;;;5302776;26;20259;-75
2024/04/14 09:08:33;;;;;;;4.53;1.30;;;;;;;;;;5345021;26;20259;-75
2024/04/14 09:11:01;;;;;;;4.57;1.25;;;;;;;;;;5362092;26;20254;-75
2024/04/14 09:13:27;;;;;;;3.92;1.00;;;;;;;;;;5342408;26;20254;-75
2024/04/14 09:15:56;;;;;;;4.95;1.17;;;;;;;;;;5329173;26;20286;-75
2024/04/14 09:18:21;;;;;;;4.82;1.10;;;;;;;;;;5277638;26;20679;-76
2024/04/14 09:20:50;;;;;;;4.38;1.15;;;;;;;;;;5279429;26;20339;-75
2024/04/14 09:23:15;;;;;;;4.28;1.02;;;;;;;;;;5333139;26;20259;-75
2024/04/14 09:25:46;;;;;;;2.72;1.10;;;;;;;;;;5361738;26;20275;-76
2024/04/14 09:28:11;;;;;;;2.80;1.23;;;;;;;;;;5338922;26;20301;-77
2024/04/14 09:30:38;;;;;;;2.55;1.02;;;;;;;;;;5363022;26;20253;-75
2024/04/14 09:33:03;;;;;;;5.43;1.30;;;;;;;;;;5338239;26;20258;-76
2024/04/14 09:35:29;;;;;;;4.45;1.30;;;;;;;;;;5343987;26;20296;-74
2024/04/14 09:37:55;;;;;;;5.38;1.15;;;;;;;;;;5342398;26;20250;-75
2024/04/14 09:40:25;;;;;;;4.05;1.20;;;;;;;;;;5304127;26;20301;-75
2024/04/14 09:42:55;;;;;;;3.13;1.23;;;;;;;;;;5305312;26;20260;-74
2024/04/14 09:45:20;;;;;;;3.50;1.00;;;;;;;;;;5376108;26;20615;-73
2024/04/14 09:47:50;;;;;;;4.55;0.95;;;;;;;;;;5331429;26;20283;-74
2024/04/14 09:50:16;;;;;;;4.63;1.10;;;;;;;;;;5317401;26;20289;-75
2024/04/14 09:52:41;;;;;;;2.17;0.80;;;;;;;;;;5286620;26;20264;-74
2024/04/14 09:55:10;;;;;;;3.15;0.80;;;;;;;;;;5308621;26;20684;-76
2024/04/14 09:57:40;;;;;;;4.10;1.00;;;;;;;;;;5305341;26;20310;-75
2024/04/14 10:00:08;;;;;;;3.15;1.30;;;;;;;;;;5350150;26;20278;-76
2024/04/14 10:02:40;;;;;;;2.33;0.90;;;;;;;;;;5299335;26;20624;-74
2024/04/14 10:05:09;;;;;;;4.70;1.05;;;;;;;;;;5298386;26;20396;-76
2024/04/14 10:07:37;;;;;;;4.55;0.98;;;;;;;;;;5301527;26;20326;-74
2024/04/14 10:10:08;;;;;;;4.40;1.10;;;;;;;;;;5278590;26;20300;-74
2024/04/14 10:12:35;;;;;;;4.28;1.10;;;;;;;;;;5304017;26;20302;-74
2024/04/14 10:15:06;;;;;;;3.97;1.00;;;;;;;;;;5321380;26;20252;-74
2024/04/14 10:17:37;;;;;;;2.60;0.93;;;;;;;;;;5356688;26;20717;-73
2024/04/14 10:20:18;;;;;;;3.00;0.90;;;;;;;;;;5349951;26;20284;-74
2024/04/14 10:22:45;;;;;;;2.25;0.85;;;;;;;;;;5341082;26;20717;-73
2024/04/14 10:25:18;;;;;;;2.75;0.82;;;;;;;;;;5337048;26;20304;-74
2024/04/14 10:27:46;;;;;;;3.22;0.98;;;;;;;;;;5338857;26;20259;-74
2024/04/14 10:30:24;;;;;;;3.70;0.90;;;;;;;;;;5311764;26;20336;-74
2024/04/14 10:33:07;;;;;;;2.28;0.90;;;;;;;;;;5308117;26;20255;-73
2024/04/14 10:35:37;;;;;;;2.67;0.90;;;;;;;;;;5274493;26;20266;-74
2024/04/14 10:38:03;;;;;;;3.00;0.70;;;;;;;;;;5289780;26;20249;-74
2024/04/14 10:40:31;;;;;;;4.97;1.20;;;;;;;;;;5286160;26;20808;-72
2024/04/14 10:42:57;;;;;;;3.20;1.13;;;;;;;;;;5280425;26;20266;-75
2024/04/14 10:45:28;;;;;;;2.45;0.82;;;;;;;;;;5277184;26;20323;-74
2024/04/14 10:47:59;;;;;;;2.72;0.90;;;;;;;;;;5325822;26;20688;-74
2024/04/14 10:50:28;;;;;;;3.20;1.08;;;;;;;;;;5355644;26;20260;-73
2024/04/14 10:52:53;;;;;;;2.45;0.95;;;;;;;;;;5337631;26;20330;-73
2024/04/14 10:55:19;;;;;;;3.10;0.90;;;;;;;;;;5305440;26;20256;-74
2024/04/14 10:57:49;;;;;;;2.55;0.93;;;;;;;;;;5326318;26;20260;-73
2024/04/14 11:00:14;;;;;;;4.32;0.90;;;;;;;;;;5304873;26;20369;-75
2024/04/14 11:02:42;;;;;;;2.55;0.70;;;;;;;;;;5307400;26;20738;-74
2024/04/14 11:05:11;;;;;;;2.42;1.00;;;;;;;;;;5339844;26;20267;-75
2024/04/14 11:07:40;;;;;;;3.53;1.25;;;;;;;;;;5294397;26;20485;-74
2024/04/14 11:10:11;;;;;;;3.05;0.95;;;;;;;;;;5328317;26;20266;-74
2024/04/14 11:12:36;;;;;;;2.85;0.80;;;;;;;;;;5343048;26;20772;-74
2024/04/14 11:15:06;;;;;;;3.42;0.88;;;;;;;;;;5336469;26;20315;-74
2024/04/14 11:17:36;;;;;;;3.47;0.90;;;;;;;;;;5358951;26;20747;-74
2024/04/14 11:20:06;;;;;;;3.80;0.90;;;;;;;;;;5363728;26;20334;-75
2024/04/14 11:22:32;;;;;;;3.95;1.02;;;;;;;;;;5311118;26;20313;-73
2024/04/14 11:25:00;;;;;;;3.85;1.00;;;;;;;;;;5342244;26;20304;-73
2024/04/14 11:27:28;;;;;;;2.55;1.00;;;;;;;;;;5349500;26;20269;-76
2024/04/14 11:29:56;;;;;;;1.83;0.80;;;;;;;;;;5309288;26;20291;-75
2024/04/14 11:32:33;;;;;;;2.92;1.00;;;;;;;;;;5321644;26;20309;-75
2024/04/14 11:35:02;;;;;;;4.97;1.10;;;;;;;;;;5288446;26;20950;-74
2024/04/14 11:37:32;;;;;;;2.25;0.90;;;;;;;;;;5268320;26;20658;-75
2024/04/14 11:40:06;;;;;;;3.65;0.90;;;;;;;;;;5275430;26;20262;-74
2024/04/14 11:42:32;;;;;;;3.28;1.10;;;;;;;;;;5295397;26;20386;-74
2024/04/14 11:45:00;;;;;;;2.58;1.05;;;;;;;;;;5296703;26;20296;-76
2024/04/14 11:47:30;;;;;;;5.57;3.72;;;;;;;;;;5327689;26;20301;-74
2024/04/14 11:49:56;;;;;;;3.03;1.02;;;;;;;;;;5301033;26;20545;-75
2024/04/14 11:52:27;;;;;;;3.83;1.10;;;;;;;;;;5308556;26;20256;-74
2024/04/14 11:54:53;;;;;;;3.78;1.02;;;;;;;;;;5278855;26;20338;-75
2024/04/14 11:57:22;;;;;;;2.13;0.85;;;;;;;;;;5328121;26;20309;-75
2024/04/14 11:59:50;;;;;;;2.78;0.90;;;;;;;;;;5296470;21;20302;-91
2024/04/14 12:02:21;;;;;;;5.00;1.10;;;;;;;;;;5331136;26;20577;-91
2024/04/14 12:04:50;;;;;;;2.78;1.05;;;;;;;;;;5329569;26;20252;-91
2024/04/14 12:07:16;;;;;;;3.60;1.02;;;;;;;;;;5290553;26;20298;-91
2024/04/14 12:09:42;;;;;;;2.40;1.23;;;;;;;;;;5290978;27;20263;-91
2024/04/14 12:12:07;;;;;;;2.75;1.10;;;;;;;;;;5267633;26;20415;-91
2024/04/14 12:14:35;;;;;;;3.20;0.98;;;;;;;;;;5319342;26;20314;-91
2024/04/14 12:17:04;;;;;;;4.30;1.15;;;;;;;;;;5373665;26;20312;-93
2024/04/14 12:19:33;;;;;;;3.42;1.05;;;;;;;;;;5376016;26;20392;-91
2024/04/14 12:21:59;;;;;;;3.78;1.30;;;;;;;;;;5315565;26;20482;-92
2024/04/14 12:24:30;;;;;;;3.72;1.70;;;;;;;;;;5284015;26;20255;-89
2024/04/14 12:26:56;;;;;;;5.25;1.15;;;;;;;;;;5306497;26;20270;-89
2024/04/14 12:29:21;;;;;;;3.80;1.10;;;;;;;;;;5319052;26;20259;-90
2024/04/14 12:31:48;;;;;;;3.95;1.20;;;;;;;;;;5318682;26;20262;-91
2024/04/14 12:34:13;;;;;;;5.03;1.20;;;;;;;;;;5352243;26;20262;-91
2024/04/14 12:36:40;;;;;;;3.08;1.20;;;;;;;;;;5318267;26;20259;-90
2024/04/14 12:39:08;;;;;;;4.47;1.10;;;;;;;;;;5371549;26;20262;-91
2024/04/14 12:41:34;;;;;;;6.13;1.30;;;;;;;;;;5349174;26;20255;-92
2024/04/14 12:44:00;;;;;;;3.38;1.08;;;;;;;;;;5308641;26;20321;-90
2024/04/14 12:46:26;;;;;;;3.10;1.10;;;;;;;;;;5340529;26;20337;-88
2024/04/14 12:48:51;;;;;;;2.15;0.90;;;;;;;;;;5326834;26;20271;-89
2024/04/14 12:51:19;;;;;;;3.90;1.20;;;;;;;;;;5313918;26;20333;-89
2024/04/14 12:53:47;;;;;;;2.95;1.10;;;;;;;;;;5299180;26;20271;-89
2024/04/14 12:56:13;;;;;;;3.90;1.50;;;;;;;;;;5268586;26;20264;-88
2024/04/14 12:58:38;;;;;;;4.07;1.08;;;;;;;;;;5310950;26;20352;-90
2024/04/14 13:01:04;;;;;;;3.10;1.00;;;;;;;;;;5308441;26;20296;-88
2024/04/14 13:03:32;;;;;;;2.83;0.90;;;;;;;;;;5342960;26;20316;-91
2024/04/14 13:06:00;;;;;;;2.60;1.02;;;;;;;;;;5353425;26;20721;-87
2024/04/14 13:08:28;;;;;;;4.43;1.13;;;;;;;;;;5329921;26;20281;-88
2024/04/14 13:10:55;;;;;;;3.22;1.00;;;;;;;;;;5353785;26;20693;-88
2024/04/14 13:13:23;;;;;;;2.65;1.17;;;;;;;;;;5296816;26;20286;-88
2024/04/14 13:15:53;;;;;;;2.72;0.95;;;;;;;;;;5300272;26;20242;-87
2024/04/14 13:18:19;;;;;;;4.50;0.90;;;;;;;;;;5310630;26;20270;-89
2024/04/14 13:20:45;;;;;;;5.15;1.60;;;;;;;;;;5326040;26;20709;-89
2024/04/14 13:23:10;;;;;;;2.58;0.82;;;;;;;;;;5321378;26;20259;-90
2024/04/14 13:25:36;;;;;;;3.45;1.20;;;;;;;;;;5292111;26;20263;-89
2024/04/14 13:28:01;;;;;;;4.18;1.38;;;;;;;;;;5315609;26;20298;-90
2024/04/14 13:30:27;;;;;;;2.30;1.17;;;;;;;;;;5319119;26;20259;-90
2024/04/14 13:32:53;;;;;;;2.80;1.00;;;;;;;;;;5317683;26;20263;-89
2024/04/14 13:35:20;;;;;;;2.17;0.90;;;;;;;;;;5295717;26;20708;-88
2024/04/14 13:37:48;;;;;;;2.63;1.20;;;;;;;;;;5325866;26;20295;-89
2024/04/14 13:40:16;;;;;;;4.15;1.10;;;;;;;;;;5322645;26;20362;-89
2024/04/14 13:42:41;;;;;;;5.28;0.90;;;;;;;;;;5321126;26;20391;-89
2024/04/14 13:45:07;;;;;;;3.20;0.80;;;;;;;;;;5331760;26;20282;-92
2024/04/14 13:47:35;;;;;;;3.20;1.00;;;;;;;;;;5356855;26;20254;-91
2024/04/14 13:50:03;;;;;;;4.10;1.20;;;;;;;;;;5344891;26;20413;-89
2024/04/14 13:52:29;;;;;;;3.00;0.90;;;;;;;;;;5370252;26;20255;-90
2024/04/14 13:54:58;;;;;;;2.97;1.02;;;;;;;;;;5306908;26;20318;-90
2024/04/14 13:57:26;;;;;;;3.42;1.10;;;;;;;;;;5311331;26;20257;-87
2024/04/14 13:59:52;;;;;;;3.13;1.13;;;;;;;;;;5296065;26;20287;-88
2024/04/14 14:02:20;;;;;;;4.57;2.28;;;;;;;;;;5316019;26;20264;-88
2024/04/14 14:04:48;;;;;;;5.50;2.17;;;;;;;;;;5306904;26;20275;-91
2024/04/14 14:07:18;;;;;;;7.75;4.45;;;;;;;;;;5350682;26;20250;-89
2024/04/14 14:09:46;;;;;;;6.15;2.70;;;;;;;;;;5320487;26;20337;-88
2024/04/14 14:12:12;;;;;;;5.32;3.63;;;;;;;;;;5311661;26;20259;-88
2024/04/14 14:14:38;;;;;;;5.25;1.48;;;;;;;;;;5325769;26;20778;-90
2024/04/14 14:17:06;;;;;;;4.28;2.00;;;;;;;;;;5325673;26;20301;-90
2024/04/14 14:19:34;;;;;;;14.63;10.05;;;;;;;;;;5280974;27;20275;-91
2024/04/14 14:22:02;;;;;;;4.15;2.20;;;;;;;;;;5304253;26;20255;-89
2024/04/14 14:24:28;;;;;;;4.20;2.72;;;;;;;;;;5352808;26;20716;-89
2024/04/14 14:26:58;;;;;;;10.60;6.82;;;;;;;;;;5323246;26;20263;-92
2024/04/14 14:29:24;;;;;;;4.47;2.83;;;;;;;;;;5390396;26;20313;-90
2024/04/14 14:31:50;;;;;;;6.65;4.40;;;;;;;;;;5341527;26;20251;-90
2024/04/14 14:37:01;;;;;;;3.80;2.30;;;;;;;;;;5320873;26;20267;-90
2024/04/14 14:39:27;;;;;;;6.47;4.57;;;;;;;;;;5312859;26;20323;-90
2024/04/14 14:41:53;;;;;;;11.50;5.30;;;;;;;;;;5330120;26;20266;-92
2024/04/14 14:44:21;;;;;;;9.52;6.43;;;;;;;;;;5303710;26;20784;-92
2024/04/14 14:46:47;;;;;;;4.80;2.20;;;;;;;;;;5304106;26;20259;-90
2024/04/14 14:49:13;;;;;;;3.60;1.65;;;;;;;;;;5308555;26;20400;-91
2024/04/14 14:51:38;;;;;;;3.08;1.40;;;;;;;;;;5318769;26;20761;-90